Time;durP1;ratioP1;P1;durP2;ratioP2;P2;SDS_P1;SDS_P2;PMS_P1;PMS_P2;Temp;Humidity;BMP_temperature;BMP_pressure;BME280_temperature;BME280_humidity;BME280_pressure;Samples;Min_cycle;Max_cycle;Signal;HPM_P1;HPM_P2
2021/05/24 00:00:30;;;;;;;5.40;2.42;;;;;;;;;;6172489;23;20001;-87
2021/05/24 00:03:16;;;;;;;5.57;3.33;;;;;;;;;;6152404;23;20025;-86
2021/05/24 00:06:01;;;;;;;5.40;2.80;;;;;;;;;;6151494;23;20025;-86
2021/05/24 00:08:46;;;;;;;6.68;2.75;;;;;;;;;;6151913;23;20386;-86
2021/05/24 00:11:32;;;;;;;8.93;2.90;;;;;;;;;;6171869;23;19998;-87
2021/05/24 00:14:19;;;;;;;4.47;2.38;;;;;;;;;;6152241;23;20005;-84
2021/05/24 00:17:05;;;;;;;8.82;2.33;;;;;;;;;;6150823;23;20033;-87
2021/05/24 00:19:51;;;;;;;4.80;3.00;;;;;;;;;;6172922;23;20020;-87
2021/05/24 00:22:36;;;;;;;5.75;2.35;;;;;;;;;;6150405;23;19994;-87
2021/05/24 00:25:22;;;;;;;4.65;2.28;;;;;;;;;;6172797;23;20025;-87
2021/05/24 00:28:12;;;;;;;6.65;2.45;;;;;;;;;;6150956;23;20004;-88
2021/05/24 00:30:57;;;;;;;6.40;3.35;;;;;;;;;;6173011;23;20008;-87
2021/05/24 00:33:42;;;;;;;8.15;2.70;;;;;;;;;;6150548;23;20085;-87
2021/05/24 00:36:27;;;;;;;5.68;2.42;;;;;;;;;;6152061;23;20085;-87
2021/05/24 00:39:12;;;;;;;6.40;2.75;;;;;;;;;;6171819;23;20430;-87
2021/05/24 00:41:58;;;;;;;4.38;2.10;;;;;;;;;;6152539;23;20008;-87
2021/05/24 00:44:44;;;;;;;6.43;2.63;;;;;;;;;;6155773;23;20026;-87
2021/05/24 00:47:29;;;;;;;9.15;3.13;;;;;;;;;;6171387;23;20032;-87
2021/05/24 00:50:14;;;;;;;3.85;2.65;;;;;;;;;;6151741;23;19997;-86
2021/05/24 00:52:59;;;;;;;6.07;2.65;;;;;;;;;;6150752;23;20362;-86
2021/05/24 00:55:45;;;;;;;4.68;2.65;;;;;;;;;;6152146;23;19994;-87
2021/05/24 00:58:30;;;;;;;10.60;2.67;;;;;;;;;;6151276;23;19993;-86
2021/05/24 01:01:15;;;;;;;5.38;2.67;;;;;;;;;;6153342;23;19998;-86
2021/05/24 01:04:01;;;;;;;6.10;2.67;;;;;;;;;;6172487;23;20100;-86
2021/05/24 01:06:47;;;;;;;5.57;2.80;;;;;;;;;;6161516;23;19997;-86
2021/05/24 01:09:34;;;;;;;4.95;2.50;;;;;;;;;;6170253;23;20306;-86
2021/05/24 01:12:19;;;;;;;5.68;2.90;;;;;;;;;;6158942;23;20009;-86
2021/05/24 01:15:05;;;;;;;4.85;2.35;;;;;;;;;;6151514;23;20005;-86
2021/05/24 01:17:50;;;;;;;4.10;2.22;;;;;;;;;;6173495;23;20055;-86
2021/05/24 01:20:36;;;;;;;5.25;2.63;;;;;;;;;;6172860;23;20016;-86
2021/05/24 01:23:26;;;;;;;7.25;3.95;;;;;;;;;;6152212;23;20136;-86
2021/05/24 01:26:13;;;;;;;6.15;2.85;;;;;;;;;;6153496;23;20025;-87
2021/05/24 01:28:58;;;;;;;4.32;2.42;;;;;;;;;;6173542;23;19998;-86
2021/05/24 01:31:43;;;;;;;6.10;2.53;;;;;;;;;;6153544;23;20005;-86
2021/05/24 01:34:29;;;;;;;6.43;2.60;;;;;;;;;;6151208;23;20010;-86
2021/05/24 01:37:14;;;;;;;5.53;2.88;;;;;;;;;;6152581;23;20025;-85
2021/05/24 01:39:59;;;;;;;6.22;2.38;;;;;;;;;;6151294;23;20006;-86
2021/05/24 01:42:45;;;;;;;4.95;2.55;;;;;;;;;;6173665;23;20001;-86
2021/05/24 01:45:30;;;;;;;7.57;2.80;;;;;;;;;;6151382;23;20089;-86
2021/05/24 01:48:15;;;;;;;5.03;2.50;;;;;;;;;;6173146;23;20036;-85
2021/05/24 01:51:00;;;;;;;4.93;2.83;;;;;;;;;;6151572;23;20009;-86
2021/05/24 01:53:46;;;;;;;4.28;2.40;;;;;;;;;;6173155;23;20009;-87
2021/05/24 01:56:31;;;;;;;6.65;2.30;;;;;;;;;;6150844;23;19993;-87
2021/05/24 01:59:16;;;;;;;6.55;2.78;;;;;;;;;;6152866;23;19994;-87
2021/05/24 02:02:02;;;;;;;3.63;2.17;;;;;;;;;;6152179;23;20029;-86
2021/05/24 02:04:47;;;;;;;6.00;2.83;;;;;;;;;;6153519;23;19997;-87
2021/05/24 02:07:33;;;;;;;5.35;2.40;;;;;;;;;;6151370;23;19998;-86
2021/05/24 02:10:20;;;;;;;4.10;2.20;;;;;;;;;;6153276;23;20060;-85
2021/05/24 02:13:06;;;;;;;3.17;2.20;;;;;;;;;;6153261;23;20025;-87
2021/05/24 02:15:51;;;;;;;5.30;2.50;;;;;;;;;;6152062;23;19998;-85
2021/05/24 02:18:36;;;;;;;4.53;2.20;;;;;;;;;;6153022;23;20010;-86
2021/05/24 02:21:21;;;;;;;7.00;2.40;;;;;;;;;;6151964;23;20028;-87
2021/05/24 02:24:07;;;;;;;4.80;2.45;;;;;;;;;;6153149;23;19997;-86
2021/05/24 02:26:53;;;;;;;4.30;2.03;;;;;;;;;;6152244;23;20052;-87
2021/05/24 02:29:38;;;;;;;3.65;2.20;;;;;;;;;;6153505;23;20791;-86
2021/05/24 02:32:23;;;;;;;3.95;2.22;;;;;;;;;;6151975;23;20013;-87
2021/05/24 02:35:10;;;;;;;3.97;2.30;;;;;;;;;;6153325;23;20021;-86
2021/05/24 02:37:56;;;;;;;5.03;2.33;;;;;;;;;;6151550;23;19997;-86
2021/05/24 02:40:42;;;;;;;3.95;2.78;;;;;;;;;;6153104;23;19997;-86
2021/05/24 02:43:27;;;;;;;8.48;2.42;;;;;;;;;;6152252;23;19994;-87
2021/05/24 02:46:12;;;;;;;5.20;2.10;;;;;;;;;;6174194;23;20056;-87
2021/05/24 02:48:57;;;;;;;8.45;2.60;;;;;;;;;;6173500;23;20058;-87
2021/05/24 02:51:43;;;;;;;7.50;2.53;;;;;;;;;;6160045;23;20628;-88
2021/05/24 02:54:28;;;;;;;6.65;2.38;;;;;;;;;;6157358;23;20028;-87
2021/05/24 02:57:13;;;;;;;5.95;2.55;;;;;;;;;;6154173;23;20055;-87
2021/05/24 02:59:58;;;;;;;2.55;2.20;;;;;;;;;;6158760;23;20367;-86
2021/05/24 03:02:47;;;;;;;7.32;2.63;;;;;;;;;;6177870;23;20001;-86
2021/05/24 03:05:32;;;;;;;4.78;2.30;;;;;;;;;;6159676;23;20370;-86
2021/05/24 03:08:17;;;;;;;4.68;2.30;;;;;;;;;;6153635;23;20525;-87
2021/05/24 03:11:03;;;;;;;5.38;2.70;;;;;;;;;;6152902;23;20012;-87
2021/05/24 03:13:48;;;;;;;4.05;2.33;;;;;;;;;;6177515;23;19994;-86
2021/05/24 03:16:34;;;;;;;4.82;2.60;;;;;;;;;;6152860;23;19994;-86
2021/05/24 03:19:19;;;;;;;5.45;2.25;;;;;;;;;;6149158;23;20036;-88
2021/05/24 03:22:04;;;;;;;4.78;2.70;;;;;;;;;;6152716;23;20488;-88
2021/05/24 03:24:49;;;;;;;5.88;2.83;;;;;;;;;;6171098;23;20099;-87
2021/05/24 03:27:34;;;;;;;3.92;2.15;;;;;;;;;;6173927;23;20002;-88
2021/05/24 03:30:20;;;;;;;6.32;2.40;;;;;;;;;;6151716;23;20005;-87
2021/05/24 03:33:06;;;;;;;3.88;2.10;;;;;;;;;;6152641;23;20005;-86
2021/05/24 03:35:51;;;;;;;5.25;2.45;;;;;;;;;;6151718;23;20004;-86
2021/05/24 03:38:37;;;;;;;4.32;2.25;;;;;;;;;;6152293;23;19998;-87
2021/05/24 03:41:22;;;;;;;4.13;2.53;;;;;;;;;;6151660;23;20649;-87
2021/05/24 03:44:08;;;;;;;3.55;2.00;;;;;;;;;;6152354;23;20221;-87
2021/05/24 03:46:53;;;;;;;3.63;1.95;;;;;;;;;;6152444;23;20374;-87
2021/05/24 03:49:39;;;;;;;4.07;2.50;;;;;;;;;;6152034;23;20024;-88
2021/05/24 03:52:25;;;;;;;3.88;2.20;;;;;;;;;;6172278;23;20342;-87
2021/05/24 03:55:10;;;;;;;3.47;2.25;;;;;;;;;;6170588;23;20009;-87
2021/05/24 03:57:56;;;;;;;3.80;2.08;;;;;;;;;;6156242;23;20076;-87
2021/05/24 04:00:41;;;;;;;2.78;1.98;;;;;;;;;;6151231;23;20571;-87
2021/05/24 04:03:26;;;;;;;3.58;2.10;;;;;;;;;;6152510;23;20107;-86
2021/05/24 04:06:15;;;;;;;3.90;2.30;;;;;;;;;;6151334;23;19997;-85
2021/05/24 04:09:01;;;;;;;5.88;2.47;;;;;;;;;;6151668;23;20052;-86
2021/05/24 04:11:47;;;;;;;2.97;2.10;;;;;;;;;;6171390;23;20001;-87
2021/05/24 04:14:33;;;;;;;5.22;2.17;;;;;;;;;;6152706;23;19994;-86
2021/05/24 04:17:21;;;;;;;7.22;2.92;;;;;;;;;;6150935;23;20152;-87
2021/05/24 04:20:08;;;;;;;3.10;2.05;;;;;;;;;;6151947;23;20013;-87
2021/05/24 04:22:53;;;;;;;5.68;2.33;;;;;;;;;;6150242;23;20047;-86
2021/05/24 04:25:38;;;;;;;3.30;2.08;;;;;;;;;;6152305;23;20005;-86
2021/05/24 04:28:23;;;;;;;5.40;2.20;;;;;;;;;;6172039;23;20009;-86
2021/05/24 04:31:09;;;;;;;4.43;1.90;;;;;;;;;;6151059;23;20009;-86
2021/05/24 04:33:54;;;;;;;4.35;2.10;;;;;;;;;;6180720;23;19997;-86
2021/05/24 04:36:39;;;;;;;5.43;2.22;;;;;;;;;;6150900;23;20557;-86
2021/05/24 04:39:24;;;;;;;4.07;2.20;;;;;;;;;;6151827;23;20444;-88
2021/05/24 04:42:10;;;;;;;4.22;2.42;;;;;;;;;;6150707;23;20001;-86
2021/05/24 04:44:55;;;;;;;5.10;2.45;;;;;;;;;;6152032;23;20001;-87
2021/05/24 04:47:41;;;;;;;5.20;2.55;;;;;;;;;;6171107;23;20262;-87
2021/05/24 04:50:26;;;;;;;4.03;1.95;;;;;;;;;;6151096;23;20132;-87
2021/05/24 04:53:11;;;;;;;6.28;2.65;;;;;;;;;;6150066;23;20000;-87
2021/05/24 04:55:57;;;;;;;8.07;2.63;;;;;;;;;;6151678;23;20004;-86
2021/05/24 04:58:42;;;;;;;5.75;2.53;;;;;;;;;;6150539;23;19994;-86
2021/05/24 05:01:27;;;;;;;4.43;2.20;;;;;;;;;;6153535;23;20465;-88
2021/05/24 05:04:13;;;;;;;4.45;2.13;;;;;;;;;;6152503;23;20005;-87
2021/05/24 05:06:58;;;;;;;3.25;1.80;;;;;;;;;;6153768;23;20009;-87
2021/05/24 05:09:43;;;;;;;3.88;1.90;;;;;;;;;;6131466;23;20002;-87
2021/05/24 05:12:29;;;;;;;2.70;1.73;;;;;;;;;;6153851;23;20005;-86
2021/05/24 05:15:14;;;;;;;3.20;1.92;;;;;;;;;;6153727;23;20040;-88
2021/05/24 05:18:00;;;;;;;2.75;1.70;;;;;;;;;;6152339;23;19998;-87
2021/05/24 05:20:45;;;;;;;17.48;2.40;;;;;;;;;;6153150;23;20076;-86
2021/05/24 05:23:30;;;;;;;3.55;1.95;;;;;;;;;;6152838;23;20001;-87
2021/05/24 05:26:15;;;;;;;3.58;1.88;;;;;;;;;;6153627;23;20004;-87
2021/05/24 05:29:01;;;;;;;4.82;2.13;;;;;;;;;;6151941;23;19998;-87
2021/05/24 05:31:46;;;;;;;4.80;2.00;;;;;;;;;;6153301;23;20307;-86
2021/05/24 05:34:31;;;;;;;5.07;2.28;;;;;;;;;;6151256;23;20025;-86
2021/05/24 05:37:19;;;;;;;4.97;2.10;;;;;;;;;;6174239;23;20031;-87
2021/05/24 05:40:05;;;;;;;6.30;2.38;;;;;;;;;;6152083;23;20005;-87
2021/05/24 05:42:50;;;;;;;3.42;2.40;;;;;;;;;;6153755;23;20001;-87
2021/05/24 05:45:35;;;;;;;3.72;2.08;;;;;;;;;;6151919;23;20001;-88
2021/05/24 05:48:20;;;;;;;3.53;2.10;;;;;;;;;;6173920;23;20355;-87
2021/05/24 05:51:06;;;;;;;3.83;1.80;;;;;;;;;;6171712;23;20032;-89
2021/05/24 05:53:52;;;;;;;6.53;2.40;;;;;;;;;;6152847;23;20004;-87
2021/05/24 05:56:37;;;;;;;4.85;1.80;;;;;;;;;;6152223;23;20025;-87
2021/05/24 05:59:22;;;;;;;3.53;2.00;;;;;;;;;;6150877;23;20096;-87
2021/05/24 06:02:07;;;;;;;2.92;1.67;;;;;;;;;;6152720;23;19998;-87
2021/05/24 06:04:52;;;;;;;4.88;1.60;;;;;;;;;;6150464;23;20258;-88
2021/05/24 06:07:41;;;;;;;4.15;2.03;;;;;;;;;;6173771;23;20525;-87
2021/05/24 06:10:26;;;;;;;3.75;2.17;;;;;;;;;;6151310;23;20032;-88
2021/05/24 06:13:11;;;;;;;3.63;2.00;;;;;;;;;;6153463;23;20001;-87
2021/05/24 06:15:56;;;;;;;6.15;2.03;;;;;;;;;;6175596;23;20370;-88
2021/05/24 06:18:42;;;;;;;6.32;2.33;;;;;;;;;;6152944;23;20017;-87
2021/05/24 06:21:27;;;;;;;3.42;1.90;;;;;;;;;;6171191;23;20029;-87
2021/05/24 06:24:13;;;;;;;9.95;2.55;;;;;;;;;;6150959;23;20452;-87
2021/05/24 06:26:58;;;;;;;4.40;1.88;;;;;;;;;;6151573;23;20005;-87
2021/05/24 06:29:43;;;;;;;3.88;1.77;;;;;;;;;;6173206;23;20001;-87
2021/05/24 06:32:28;;;;;;;2.70;1.50;;;;;;;;;;6172337;23;20009;-86
2021/05/24 06:35:14;;;;;;;2.63;1.45;;;;;;;;;;6152661;23;20085;-86
2021/05/24 06:37:59;;;;;;;3.45;1.90;;;;;;;;;;6151970;23;20006;-87
2021/05/24 06:40:44;;;;;;;2.65;1.58;;;;;;;;;;6153518;23;20299;-87
2021/05/24 06:43:30;;;;;;;4.35;1.92;;;;;;;;;;6153620;23;19994;-87
2021/05/24 06:46:15;;;;;;;3.05;1.70;;;;;;;;;;6152329;23;20019;-86
2021/05/24 06:49:00;;;;;;;2.50;1.50;;;;;;;;;;6153140;23;20025;-87
2021/05/24 06:51:47;;;;;;;3.38;1.73;;;;;;;;;;6150077;23;20004;-88
2021/05/24 06:54:32;;;;;;;5.65;1.73;;;;;;;;;;6173095;23;20330;-88
2021/05/24 06:57:17;;;;;;;5.22;1.58;;;;;;;;;;6151666;23;20005;-87
2021/05/24 07:00:04;;;;;;;3.33;2.20;;;;;;;;;;6152134;23;20008;-87
2021/05/24 07:02:50;;;;;;;2.08;1.75;;;;;;;;;;6176515;23;20108;-85
2021/05/24 07:05:35;;;;;;;4.30;2.15;;;;;;;;;;6151665;23;20322;-85
2021/05/24 07:08:20;;;;;;;5.72;2.22;;;;;;;;;;6170035;23;19993;-86
2021/05/24 07:11:05;;;;;;;3.50;1.92;;;;;;;;;;6172393;23;20008;-86
2021/05/24 07:13:51;;;;;;;5.47;2.30;;;;;;;;;;6151955;23;20000;-86
2021/05/24 07:16:36;;;;;;;2.65;1.90;;;;;;;;;;6152428;23;19998;-87
2021/05/24 07:19:21;;;;;;;3.40;1.83;;;;;;;;;;6151660;23;20009;-84
2021/05/24 07:22:07;;;;;;;5.22;1.90;;;;;;;;;;6157274;23;19997;-86
2021/05/24 07:24:53;;;;;;;2.63;1.73;;;;;;;;;;6152771;23;20005;-89
2021/05/24 07:27:38;;;;;;;4.65;1.95;;;;;;;;;;6153462;23;20084;-89
2021/05/24 07:30:23;;;;;;;2.75;1.70;;;;;;;;;;6153840;23;20374;-88
2021/05/24 07:33:11;;;;;;;2.65;1.60;;;;;;;;;;6153182;23;20003;-88
2021/05/24 07:35:56;;;;;;;3.22;1.88;;;;;;;;;;6153267;23;19998;-87
2021/05/24 07:38:42;;;;;;;5.93;2.90;;;;;;;;;;6173229;23;20422;-88
2021/05/24 07:41:28;;;;;;;4.25;1.85;;;;;;;;;;6175753;23;20008;-89
2021/05/24 07:44:13;;;;;;;5.50;1.98;;;;;;;;;;6154982;23;20051;-88
2021/05/24 07:46:59;;;;;;;4.20;1.90;;;;;;;;;;6154589;23;20040;-89
2021/05/24 07:49:46;;;;;;;4.53;1.52;;;;;;;;;;6153061;23;20001;-89
2021/05/24 07:52:31;;;;;;;5.68;2.10;;;;;;;;;;6154068;23;20006;-87
2021/05/24 07:55:16;;;;;;;3.85;1.50;;;;;;;;;;6154739;23;20033;-87
2021/05/24 07:58:02;;;;;;;3.70;1.67;;;;;;;;;;6153147;23;20213;-88
2021/05/24 08:00:47;;;;;;;4.90;1.60;;;;;;;;;;6152036;23;20025;-89
2021/05/24 08:03:32;;;;;;;6.45;1.58;;;;;;;;;;6152868;23;20299;-87
2021/05/24 08:06:18;;;;;;;3.80;1.50;;;;;;;;;;6150114;23;20458;-88
2021/05/24 08:09:03;;;;;;;6.28;1.67;;;;;;;;;;6151359;23;19994;-88
2021/05/24 08:11:50;;;;;;;7.63;1.77;;;;;;;;;;6151522;23;20315;-89
2021/05/24 08:14:36;;;;;;;3.30;1.60;;;;;;;;;;6152495;23;20359;-88
2021/05/24 08:17:21;;;;;;;3.75;1.58;;;;;;;;;;6173836;23;19997;-86
2021/05/24 08:20:07;;;;;;;5.55;1.65;;;;;;;;;;6150723;23;20430;-87
2021/05/24 08:22:52;;;;;;;4.53;1.60;;;;;;;;;;6152193;23;20077;-87
2021/05/24 08:25:37;;;;;;;3.13;1.55;;;;;;;;;;6151237;23;20016;-88
2021/05/24 08:28:22;;;;;;;4.25;1.23;;;;;;;;;;6153125;23;20070;-87
2021/05/24 08:31:08;;;;;;;6.72;2.05;;;;;;;;;;6151983;23;20504;-89
2021/05/24 08:33:53;;;;;;;4.43;1.55;;;;;;;;;;6173490;23;20329;-88
2021/05/24 08:36:38;;;;;;;3.03;1.35;;;;;;;;;;6151948;23;20597;-88
2021/05/24 08:39:24;;;;;;;3.13;1.20;;;;;;;;;;6174497;23;19998;-88
2021/05/24 08:42:09;;;;;;;5.18;0.98;;;;;;;;;;6152422;23;20032;-88
2021/05/24 08:44:56;;;;;;;2.10;1.20;;;;;;;;;;6152995;23;20493;-89
2021/05/24 08:47:41;;;;;;;3.85;1.40;;;;;;;;;;6152180;23;20013;-88
2021/05/24 08:50:26;;;;;;;2.75;1.35;;;;;;;;;;6152601;23;20076;-88
2021/05/24 08:53:12;;;;;;;1.50;1.15;;;;;;;;;;6151898;23;20049;-88
2021/05/24 08:55:57;;;;;;;2.67;1.30;;;;;;;;;;6157434;23;20056;-87
2021/05/24 08:58:42;;;;;;;3.50;1.45;;;;;;;;;;6160795;23;20025;-88
2021/05/24 09:01:28;;;;;;;2.40;1.20;;;;;;;;;;6162549;23;20010;-89
2021/05/24 09:04:13;;;;;;;2.25;1.13;;;;;;;;;;6164644;23;20014;-89
2021/05/24 09:07:00;;;;;;;2.22;1.50;;;;;;;;;;6159902;23;20048;-88
2021/05/24 09:09:58;;;;;;;4.70;1.75;;;;;;;;;;6153643;23;20048;-88
2021/05/24 09:12:43;;;;;;;3.13;1.17;;;;;;;;;;6131536;23;20060;-88
2021/05/24 09:15:29;;;;;;;2.70;1.38;;;;;;;;;;6153366;23;20001;-87
2021/05/24 09:18:17;;;;;;;1.35;1.17;;;;;;;;;;6152301;23;20315;-89
2021/05/24 09:21:08;;;;;;;2.78;1.00;;;;;;;;;;6154290;23;20218;-87
2021/05/24 09:24:12;;;;;;;2.95;1.25;;;;;;;;;;6154732;23;20264;-90
2021/05/24 09:27:11;;;;;;;2.05;1.05;;;;;;;;;;6155258;23;20132;-89
2021/05/24 09:29:59;;;;;;;2.85;1.17;;;;;;;;;;6154932;23;20338;-91
2021/05/24 09:32:47;;;;;;;1.80;1.00;;;;;;;;;;6152716;23;20151;-88
2021/05/24 09:35:32;;;;;;;3.67;1.60;;;;;;;;;;6151369;23;20452;-88
2021/05/24 09:38:18;;;;;;;3.65;1.20;;;;;;;;;;6154084;23;20021;-88
2021/05/24 09:41:06;;;;;;;3.53;1.25;;;;;;;;;;6165099;23;20177;-90
2021/05/24 09:43:56;;;;;;;2.10;1.20;;;;;;;;;;6150706;23;20001;-89
2021/05/24 09:46:42;;;;;;;2.25;1.08;;;;;;;;;;6159370;23;20008;-89
2021/05/24 09:49:31;;;;;;;2.80;0.85;;;;;;;;;;6118836;23;20001;-89
2021/05/24 09:52:16;;;;;;;1.63;1.02;;;;;;;;;;6156773;23;20024;-87
2021/05/24 09:55:21;;;;;;;3.65;1.23;;;;;;;;;;6152052;23;20021;-87
2021/05/24 09:58:09;;;;;;;1.30;1.10;;;;;;;;;;6157767;23;20001;-88
2021/05/24 10:01:02;;;;;;;2.17;1.27;;;;;;;;;;6151904;23;20354;-89
2021/05/24 10:03:55;;;;;;;1.80;1.10;;;;;;;;;;6152885;23;20260;-88
2021/05/24 10:06:40;;;;;;;1.25;1.08;;;;;;;;;;6152153;23;20080;-88
2021/05/24 10:09:26;;;;;;;2.00;1.10;;;;;;;;;;6171757;23;20012;-89
2021/05/24 10:12:16;;;;;;;3.10;0.95;;;;;;;;;;6152437;23;20060;-88
2021/05/24 10:15:02;;;;;;;1.98;1.25;;;;;;;;;;6171099;23;20024;-88
2021/05/24 10:17:52;;;;;;;1.23;0.90;;;;;;;;;;6151124;23;20124;-89
2021/05/24 10:20:38;;;;;;;8.27;1.30;;;;;;;;;;6150536;23;20006;-88
2021/05/24 10:23:24;;;;;;;1.55;1.10;;;;;;;;;;6151772;23;19997;-88
2021/05/24 10:26:12;;;;;;;3.65;1.17;;;;;;;;;;6150609;23;20008;-88
2021/05/24 10:28:58;;;;;;;1.83;1.10;;;;;;;;;;6151393;23;20002;-87
2021/05/24 10:31:43;;;;;;;3.35;1.30;;;;;;;;;;6149655;23;19997;-87
2021/05/24 10:34:35;;;;;;;2.15;0.90;;;;;;;;;;6151195;23;20002;-87
2021/05/24 10:37:22;;;;;;;3.05;0.95;;;;;;;;;;6150726;23;20438;-88
2021/05/24 10:40:09;;;;;;;1.63;1.15;;;;;;;;;;6152212;23;19993;-88
2021/05/24 10:43:06;;;;;;;2.10;1.25;;;;;;;;;;6152403;23;20566;-88
2021/05/24 10:45:59;;;;;;;1.20;0.80;;;;;;;;;;6150563;23;20403;-88
2021/05/24 10:48:53;;;;;;;1.63;0.90;;;;;;;;;;6152057;23;20000;-90
2021/05/24 10:51:47;;;;;;;1.92;0.88;;;;;;;;;;6151276;23;20065;-87
2021/05/24 10:54:36;;;;;;;3.03;1.00;;;;;;;;;;6152562;23;19997;-88
2021/05/24 10:57:21;;;;;;;2.65;1.17;;;;;;;;;;6172481;23;19993;-88
2021/05/24 11:00:12;;;;;;;2.22;1.17;;;;;;;;;;6154762;23;20008;-87
2021/05/24 11:02:58;;;;;;;1.75;0.90;;;;;;;;;;6152476;23;20012;-87
2021/05/24 11:05:46;;;;;;;1.50;1.10;;;;;;;;;;6152600;23;19998;-87
2021/05/24 11:08:31;;;;;;;2.35;1.08;;;;;;;;;;6172088;23;19997;-88
2021/05/24 11:11:23;;;;;;;2.10;1.17;;;;;;;;;;6152560;23;20020;-89
2021/05/24 11:14:09;;;;;;;0.90;0.85;;;;;;;;;;6172572;23;20121;-87
2021/05/24 11:17:00;;;;;;;5.72;2.55;;;;;;;;;;6155870;23;19997;-89
2021/05/24 11:19:46;;;;;;;11.93;3.90;;;;;;;;;;6151858;23;20051;-88
2021/05/24 11:22:35;;;;;;;6.45;1.92;;;;;;;;;;6151540;23;20001;-89
2021/05/24 11:28:35;;;;;;;9.30;4.72;;;;;;;;;;6150727;23;19997;-89
2021/05/24 11:31:22;;;;;;;2.03;1.35;;;;;;;;;;6152268;23;19997;-89
2021/05/24 11:34:08;;;;;;;4.82;2.08;;;;;;;;;;6151743;23;20060;-90
2021/05/24 11:37:04;;;;;;;3.08;1.20;;;;;;;;;;6152463;23;20435;-88
2021/05/24 11:39:50;;;;;;;1.90;1.20;;;;;;;;;;6150712;23;20377;-89
2021/05/24 11:42:37;;;;;;;1.88;1.02;;;;;;;;;;6152660;23;19997;-90
2021/05/24 11:45:31;;;;;;;2.38;1.00;;;;;;;;;;6152694;23;19997;-89
2021/05/24 11:48:19;;;;;;;3.17;0.90;;;;;;;;;;6151363;23;20382;-88
2021/05/24 11:51:08;;;;;;;2.25;0.90;;;;;;;;;;6151417;23;20077;-88
2021/05/24 11:54:07;;;;;;;2.38;0.80;;;;;;;;;;6152162;23;19997;-90
2021/05/24 11:57:19;;;;;;;1.33;1.10;;;;;;;;;;6174845;23;20658;-90
2021/05/24 12:00:09;;;;;;;2.25;0.88;;;;;;;;;;6150717;23;20590;-90
2021/05/24 12:03:02;;;;;;;3.40;1.50;;;;;;;;;;6152102;23;19998;-90
2021/05/24 12:05:48;;;;;;;19.40;3.45;;;;;;;;;;6151269;23;20364;-91
2021/05/24 12:08:33;;;;;;;36.28;5.75;;;;;;;;;;6153119;23;20052;-90
2021/05/24 12:11:21;;;;;;;4.03;1.15;;;;;;;;;;6153813;23;20005;-89
2021/05/24 12:14:12;;;;;;;1.20;0.90;;;;;;;;;;6159912;23;19997;-90
2021/05/24 12:17:00;;;;;;;3.28;1.27;;;;;;;;;;6168884;23;20001;-89
2021/05/24 12:19:46;;;;;;;5.60;1.42;;;;;;;;;;6161965;23;20029;-90
2021/05/24 12:22:44;;;;;;;;;;;;;;;;;;;;;
2021/05/24 12:25:32;;;;;;;3.10;1.00;;;;;;;;;;6176047;23;20031;-91
2021/05/24 12:28:20;;;;;;;1.23;0.90;;;;;;;;;;6153278;23;19998;-89
2021/05/24 12:31:08;;;;;;;2.10;0.80;;;;;;;;;;6151913;23;20002;-89
2021/05/24 12:33:56;;;;;;;1.45;1.00;;;;;;;;;;6152451;23;20311;-89
2021/05/24 12:36:56;;;;;;;1.77;0.98;;;;;;;;;;6151246;23;20016;-90
2021/05/24 12:39:46;;;;;;;1.33;0.90;;;;;;;;;;6151313;23;20025;-89
2021/05/24 12:42:36;;;;;;;1.17;0.90;;;;;;;;;;6152047;23;19998;-90
2021/05/24 12:45:24;;;;;;;2.70;1.23;;;;;;;;;;6151029;23;20024;-89
2021/05/24 12:48:16;;;;;;;1.83;1.27;;;;;;;;;;6151216;23;19998;-88
2021/05/24 12:51:12;;;;;;;3.30;1.95;;;;;;;;;;6150238;23;20005;-88
2021/05/24 12:54:05;;;;;;;3.58;1.48;;;;;;;;;;6150905;23;20480;-89
2021/05/24 12:57:02;;;;;;;2.95;1.30;;;;;;;;;;6151108;23;19994;-91
2021/05/24 13:03:43;;;;;;;2.78;1.20;;;;;;;;;;6004793;23;20003;-89
2021/05/24 13:06:43;;;;;;;2.05;0.90;;;;;;;;;;6095873;23;20017;-89
2021/05/24 13:09:33;;;;;;;1.13;0.90;;;;;;;;;;6154656;23;20477;-90
2021/05/24 13:12:25;;;;;;;1.98;1.00;;;;;;;;;;6151019;23;19997;-92
2021/05/24 13:15:28;;;;;;;5.57;2.80;;;;;;;;;;6154330;23;20366;-91
2021/05/24 13:22:59;;;;;;;1.50;1.10;;;;;;;;;;6144740;23;20430;-90
2021/05/24 13:30:56;;;;;;;1.83;1.45;;;;;;;;;;6153580;23;19998;-89
2021/05/24 13:33:44;;;;;;;2.92;1.35;;;;;;;;;;6173227;23;19997;-87
2021/05/24 13:36:37;;;;;;;1.92;1.15;;;;;;;;;;6153628;23;20002;-88
2021/05/24 13:39:43;;;;;;;2.78;1.30;;;;;;;;;;6151753;23;20653;-90
2021/05/24 13:42:59;;;;;;;1.20;0.90;;;;;;;;;;6149218;23;20002;-92
2021/05/24 13:53:42;;;;;;;;;;;;;;;;;;;;;
2021/05/24 13:56:45;;;;;;;2.55;1.00;;;;;;;;;;5979720;23;20000;-91
2021/05/24 14:02:52;;;;;;;1.58;0.95;;;;;;;;;;6007597;23;20539;-90
2021/05/24 14:05:59;;;;;;;1.77;0.93;;;;;;;;;;6072482;23;19999;-90
2021/05/24 14:12:47;;;;;;;;;;;;;;;;;;;;;
2021/05/24 14:15:38;;;;;;;3.03;1.20;;;;;;;;;;6127711;23;19997;-89
2021/05/24 14:18:24;;;;;;;1.48;1.15;;;;;;;;;;6152115;23;20041;-90
2021/05/24 14:21:12;;;;;;;2.40;1.02;;;;;;;;;;6153304;23;20005;-89
2021/05/24 14:27:31;;;;;;;2.63;0.90;;;;;;;;;;6096684;23;20641;-90
2021/05/24 14:30:27;;;;;;;;;;;;;;;;;;;;;
2021/05/24 14:33:13;;;;;;;3.42;1.10;;;;;;;;;;6153103;23;20032;-89
2021/05/24 14:35:58;;;;;;;1.33;1.00;;;;;;;;;;6174121;23;19993;-87
2021/05/24 14:38:49;;;;;;;3.15;0.90;;;;;;;;;;6158388;23;19997;-87
2021/05/24 14:41:34;;;;;;;2.55;1.00;;;;;;;;;;6153681;23;20004;-87
2021/05/24 14:44:24;;;;;;;3.70;1.88;;;;;;;;;;6164183;23;20009;-89
2021/05/24 14:47:12;;;;;;;3.17;1.00;;;;;;;;;;6154034;23;20001;-88
2021/05/24 14:50:04;;;;;;;1.88;0.90;;;;;;;;;;6151956;23;20049;-89
2021/05/24 14:52:59;;;;;;;1.48;0.90;;;;;;;;;;6158871;23;20061;-89
2021/05/24 14:55:44;;;;;;;3.72;0.82;;;;;;;;;;6158188;23;20002;-89
2021/05/24 14:58:30;;;;;;;2.83;0.90;;;;;;;;;;6159720;23;20013;-86
2021/05/24 15:01:15;;;;;;;4.00;1.30;;;;;;;;;;6149486;23;19997;-80
2021/05/24 15:04:00;;;;;;;1.85;0.95;;;;;;;;;;6170640;23;20080;-80
2021/05/24 15:06:45;;;;;;;3.20;1.08;;;;;;;;;;6149810;23;20076;-84
2021/05/24 15:09:31;;;;;;;3.97;1.60;;;;;;;;;;6149071;23;20489;-82
2021/05/24 15:12:16;;;;;;;2.15;1.27;;;;;;;;;;6148593;23;20151;-79
2021/05/24 15:15:01;;;;;;;1.17;0.90;;;;;;;;;;6169932;23;20025;-81
2021/05/24 15:17:48;;;;;;;2.42;0.98;;;;;;;;;;6147737;23;19997;-79
2021/05/24 15:20:34;;;;;;;1.77;0.95;;;;;;;;;;6149578;23;20099;-79
2021/05/24 15:23:21;;;;;;;4.72;0.90;;;;;;;;;;6148772;23;20037;-80
2021/05/24 15:26:06;;;;;;;5.22;1.48;;;;;;;;;;6149023;23;20052;-77
2021/05/24 15:28:54;;;;;;;5.00;1.00;;;;;;;;;;6149512;23;20064;-79
2021/05/24 15:31:40;;;;;;;1.30;0.90;;;;;;;;;;6148129;23;20126;-82
2021/05/24 15:34:26;;;;;;;3.72;0.90;;;;;;;;;;6150039;23;20003;-82
2021/05/24 15:37:11;;;;;;;5.40;1.02;;;;;;;;;;6148223;23;20053;-83
2021/05/24 15:39:57;;;;;;;7.10;1.20;;;;;;;;;;6149447;23;20335;-84
2021/05/24 15:42:46;;;;;;;3.55;1.27;;;;;;;;;;6149042;23;20346;-81
2021/05/24 15:45:32;;;;;;;1.13;0.93;;;;;;;;;;6146362;23;19993;-84
2021/05/24 15:48:17;;;;;;;2.63;1.10;;;;;;;;;;6168310;23;19998;-81
2021/05/24 15:51:03;;;;;;;2.83;1.30;;;;;;;;;;6168736;23;20001;-80
2021/05/24 15:53:48;;;;;;;21.58;15.57;;;;;;;;;;6147539;23;20031;-82
2021/05/24 15:56:33;;;;;;;10.80;6.03;;;;;;;;;;6169973;23;19993;-81
2021/05/24 15:59:18;;;;;;;3.90;1.77;;;;;;;;;;6167594;23;20083;-81
2021/05/24 16:02:04;;;;;;;2.92;1.30;;;;;;;;;;6146204;23;20001;-82
2021/05/24 16:04:49;;;;;;;3.55;1.67;;;;;;;;;;6142336;23;20044;-84
2021/05/24 16:07:34;;;;;;;3.15;1.33;;;;;;;;;;6149228;23;20338;-79
2021/05/24 16:10:20;;;;;;;3.35;1.33;;;;;;;;;;6148732;23;20390;-80
2021/05/24 16:13:06;;;;;;;4.28;1.30;;;;;;;;;;6169342;23;20009;-81
2021/05/24 16:15:51;;;;;;;5.15;1.80;;;;;;;;;;6149125;23;19997;-80
2021/05/24 16:18:36;;;;;;;5.00;1.45;;;;;;;;;;6148874;23;20064;-81
2021/05/24 16:21:22;;;;;;;6.15;1.63;;;;;;;;;;6151711;23;20355;-84
2021/05/24 16:26:55;;;;;;;4.88;1.50;;;;;;;;;;6153070;23;20001;-85
2021/05/24 16:29:40;;;;;;;6.50;1.63;;;;;;;;;;6151362;23;20049;-85
2021/05/24 16:32:26;;;;;;;6.82;1.30;;;;;;;;;;6149214;23;20020;-81
2021/05/24 16:35:12;;;;;;;3.75;1.50;;;;;;;;;;6148293;23;20370;-82
2021/05/24 16:37:58;;;;;;;3.88;1.60;;;;;;;;;;6149227;23;20021;-83
2021/05/24 16:40:45;;;;;;;5.55;1.75;;;;;;;;;;6148806;23;20071;-84
2021/05/24 16:43:30;;;;;;;6.22;2.78;;;;;;;;;;6151093;23;20035;-84
2021/05/24 16:46:17;;;;;;;3.47;1.70;;;;;;;;;;6170860;23;20001;-87
2021/05/24 16:49:02;;;;;;;4.18;1.55;;;;;;;;;;6149833;23;19998;-84
2021/05/24 16:51:48;;;;;;;10.23;6.28;;;;;;;;;;6149030;23;20001;-84
2021/05/24 16:54:33;;;;;;;5.15;2.22;;;;;;;;;;6171232;23;20092;-83
2021/05/24 16:57:19;;;;;;;4.70;1.88;;;;;;;;;;6150202;23;20009;-84
2021/05/24 17:00:05;;;;;;;4.93;1.40;;;;;;;;;;6148305;23;20077;-84
2021/05/24 17:02:50;;;;;;;3.78;1.42;;;;;;;;;;6150286;23;20438;-83
2021/05/24 17:05:37;;;;;;;5.53;1.77;;;;;;;;;;6149647;23;20461;-86
2021/05/24 17:08:23;;;;;;;3.20;1.65;;;;;;;;;;6150160;23;20003;-84
2021/05/24 17:11:08;;;;;;;4.40;1.80;;;;;;;;;;6168659;23;20673;-82
2021/05/24 17:13:55;;;;;;;3.25;1.30;;;;;;;;;;6149786;23;20430;-84
2021/05/24 17:16:41;;;;;;;9.50;2.08;;;;;;;;;;6169569;23;20099;-85
2021/05/24 17:19:26;;;;;;;5.15;2.35;;;;;;;;;;6150617;23;20105;-85
2021/05/24 17:22:12;;;;;;;3.30;1.58;;;;;;;;;;6149415;23;20003;-83